Nome, AK

6:51 AM AKDT on August 30, 2015 (GMT -0800)
Nome | | Change Station
CLOSE
Current Station
Airport
Location: Nome,
Elevation: 36 ft
Nearby Weather Stations

Elev 36 ft 64.51 °N, 165.45 °W | Updated 58 minutes ago

Overcast
Overcast
40 °F
Feels Like 30 °F
N
22
Wind Variable Wind from NW
Gusts 28 mph

Today
High -- | Low -- °F
--% Chance of Precip.
Yesterday
High -- | Low -- °F
Precip. -- in
7:36 AM 10:25 PM
Full, 99% visible
Pressure 29.68 in
Visibility 10.0 miles
Clouds Scattered Clouds 1800 ft
Mostly Cloudy 3700 ft
Overcast 7000 ft
Windchill 30 °F
Dew Point 36 °F
Humidity 86%
Rainfall 0.00 in
Snow Depth Not available.
UV 0 out of 12
Pollen Not available.
Air Quality Not available.
Flu Activity Not available.
METAR PAOM 301353Z 31019G24KT 10SM SCT018 BKN037 OVC070 04/02 A2967 RMK SLP049 T00440022 VIA AUTODIAL
Pressure 29.68 in
Visibility 10.0 miles
Clouds Scattered Clouds 1800 ft
Mostly Cloudy 3700 ft
Overcast 7000 ft
Windchill 30 °F
Dew Point 36 °F
Humidity 86%
Rainfall 0.00 in
Snow Depth Not available.
UV 0 out of 12
Pollen Not available.
Air Quality Not available.
Flu Activity Not available.
METAR PAOM 301353Z 31019G24KT 10SM SCT018 BKN037 OVC070 04/02 A2967 RMK SLP049 T00440022 VIA AUTODIAL

10-Day Weather Forecast

×

Almanac

Astronomy

Aug. 30, 2015 Rise Set
Actual Time
Civil Twilight
Nautical Twilight
Astronomical Twilight
Moon
Length of Visible Light
Length of Day
Tomorrow will be .
, % of the Moon is Illuminated

Today's Extremes

State Highs State Lows

Community

WunderPhotos

Upload Photos

1,850,974 photos uploaded!

WunderBlogs® & News

Nearby

Air Quality

  Air Quality AQ Index Pollutant
Not available.

Snow Depth

Station Depth Elevation

Earthquake Activity

City Distance Mag. Time & Date
Minimum magnitude displayed is 2.5.

Coastal Water Temperatures

Place Temperature

Stations

Nearby Weather Stations

Station Location Temp. Windchill Dew Point Humidity Wind Precip. Elev Updated Type